createdAt,value
2022-10-01T00:01:20.353Z,22.79
2022-10-01T00:03:49.600Z,22.78
2022-10-01T00:06:20.441Z,22.74
2022-10-01T00:08:50.339Z,22.68
2022-10-01T00:11:24.313Z,22.63
2022-10-01T00:13:53.853Z,22.61
2022-10-01T00:16:25.328Z,22.60
2022-10-01T00:18:56.520Z,22.60
2022-10-01T00:21:27.514Z,22.60
2022-10-01T00:24:01.851Z,22.61
2022-10-01T00:26:32.747Z,22.60
2022-10-01T00:29:07.174Z,22.61
2022-10-01T00:31:35.439Z,22.60
2022-10-01T00:34:03.992Z,22.61
2022-10-01T00:36:33.046Z,22.61
2022-10-01T00:39:01.028Z,22.57
2022-10-01T00:41:32.133Z,22.60
2022-10-01T00:44:27.764Z,22.61
2022-10-01T00:47:01.838Z,22.59
2022-10-01T00:49:33.898Z,22.59
2022-10-01T00:52:05.969Z,22.54
2022-10-01T00:54:40.473Z,22.59
2022-10-01T00:57:08.976Z,22.58
2022-10-01T00:59:37.024Z,22.59
2022-10-01T01:02:04.972Z,22.58
2022-10-01T01:04:32.718Z,22.57
2022-10-01T01:07:02.026Z,22.57
2022-10-01T01:09:44.275Z,22.57
2022-10-01T01:12:28.197Z,22.56
2022-10-01T01:15:04.921Z,22.55
2022-10-01T01:17:40.647Z,22.54
2022-10-01T01:20:14.471Z,22.53
2022-10-01T01:22:55.544Z,22.53
2022-10-01T01:25:33.960Z,22.52
2022-10-01T01:28:06.730Z,22.52
2022-10-01T01:30:37.126Z,22.51
2022-10-01T01:33:12.301Z,22.50
2022-10-01T01:35:46.182Z,22.50
2022-10-01T01:38:18.668Z,22.50
2022-10-01T01:40:51.476Z,22.49
2022-10-01T01:43:26.158Z,22.48
2022-10-01T01:45:55.175Z,22.49
2022-10-01T01:48:24.561Z,22.48
2022-10-01T01:51:12.111Z,22.43
2022-10-01T01:53:40.734Z,22.46
2022-10-01T01:56:08.942Z,22.46
2022-10-01T01:58:39.045Z,22.46
2022-10-01T02:01:06.956Z,22.45
2022-10-01T02:03:35.528Z,22.45
2022-10-01T02:06:19.314Z,22.45
2022-10-01T02:08:55.754Z,22.44
2022-10-01T02:11:37.048Z,22.39
2022-10-01T02:14:37.754Z,22.41
2022-10-01T02:17:32.188Z,22.40
2022-10-01T02:20:05.529Z,22.39
2022-10-01T02:22:57.486Z,22.39
2022-10-01T02:25:30.157Z,22.38
2022-10-01T02:28:03.509Z,22.39
2022-10-01T02:30:35.646Z,22.38
2022-10-01T02:33:06.966Z,22.38
2022-10-01T02:35:37.571Z,22.37
2022-10-01T02:38:09.538Z,22.36
2022-10-01T02:40:42.230Z,22.36
2022-10-01T02:43:18.492Z,22.35
2022-10-01T02:45:51.453Z,22.35
2022-10-01T02:48:19.709Z,22.34
2022-10-01T02:50:50.587Z,22.34
2022-10-01T02:53:29.010Z,22.34
2022-10-01T02:55:58.468Z,22.33
2022-10-01T02:58:26.247Z,22.33
2022-10-01T03:00:54.142Z,22.25
2022-10-01T03:03:21.928Z,22.33
2022-10-01T03:05:49.644Z,22.32
2022-10-01T03:08:17.415Z,22.32
2022-10-01T03:10:46.867Z,22.31
2022-10-01T03:13:14.804Z,22.31
2022-10-01T03:15:45.639Z,22.31
2022-10-01T03:18:13.480Z,22.26
2022-10-01T03:20:41.189Z,22.30
2022-10-01T03:23:08.776Z,22.29
2022-10-01T03:25:36.528Z,22.28
2022-10-01T03:28:04.431Z,22.29
2022-10-01T03:30:33.287Z,22.28
2022-10-01T03:33:01.035Z,22.28
2022-10-01T03:35:28.657Z,22.27
2022-10-01T03:37:56.310Z,22.27
2022-10-01T03:40:25.283Z,22.27
2022-10-01T03:42:53.171Z,22.26
2022-10-01T03:45:20.978Z,22.25
2022-10-01T03:47:53.070Z,22.26
2022-10-01T03:50:21.983Z,22.26
2022-10-01T03:52:50.675Z,22.28
2022-10-01T03:55:19.309Z,22.30
2022-10-01T03:57:47.312Z,22.33
2022-10-01T04:00:15.227Z,22.38
2022-10-01T04:02:43.571Z,22.43
2022-10-01T04:05:12.331Z,22.48
2022-10-01T04:07:41.764Z,22.49
2022-10-01T04:10:09.645Z,22.57
2022-10-01T04:12:37.349Z,22.63
2022-10-01T04:15:05.387Z,22.67
2022-10-01T04:17:33.217Z,22.73
2022-10-01T04:20:01.115Z,22.77
2022-10-01T04:22:28.764Z,22.81
2022-10-01T04:24:56.462Z,22.83
2022-10-01T04:27:24.081Z,22.86
2022-10-01T04:29:51.751Z,22.85
2022-10-01T04:32:21.606Z,22.90
2022-10-01T04:34:55.171Z,22.90
2022-10-01T04:37:23.819Z,22.91
2022-10-01T04:39:51.540Z,22.92
2022-10-01T04:42:19.714Z,22.91
2022-10-01T04:44:47.832Z,22.91
2022-10-01T04:47:15.436Z,22.90
2022-10-01T04:49:43.098Z,22.90
2022-10-01T04:52:10.797Z,22.89
2022-10-01T04:54:38.454Z,22.88
2022-10-01T04:57:06.532Z,22.87
2022-10-01T04:59:34.172Z,22.85
2022-10-01T05:02:01.918Z,22.83
2022-10-01T05:04:29.731Z,22.81
2022-10-01T05:06:57.426Z,22.79
2022-10-01T05:09:25.185Z,22.78
2022-10-01T05:11:52.901Z,22.77
2022-10-01T05:14:21.189Z,22.77
2022-10-01T05:16:48.970Z,22.79
2022-10-01T05:19:17.202Z,22.80
2022-10-01T05:21:46.179Z,22.83
2022-10-01T05:24:14.250Z,22.86
2022-10-01T05:26:42.012Z,22.89
2022-10-01T05:29:10.027Z,22.92
2022-10-01T05:31:38.239Z,22.96
2022-10-01T05:34:06.336Z,23.00
2022-10-01T05:36:34.009Z,23.03
2022-10-01T05:39:04.869Z,23.05
2022-10-01T05:41:32.796Z,23.08
2022-10-01T05:44:01.158Z,23.10
2022-10-01T05:46:28.912Z,23.12
2022-10-01T05:48:56.580Z,23.13
2022-10-01T05:51:25.398Z,23.15
2022-10-01T05:53:59.057Z,23.17
2022-10-01T05:56:26.786Z,23.20
2022-10-01T05:58:54.801Z,23.23
2022-10-01T06:01:22.485Z,23.25
2022-10-01T06:03:53.314Z,23.27
2022-10-01T06:06:22.642Z,23.29
2022-10-01T06:08:50.347Z,23.30
2022-10-01T06:11:18.606Z,23.31
2022-10-01T06:13:46.778Z,23.33
2022-10-01T06:16:15.614Z,23.34
2022-10-01T06:18:43.713Z,23.36
2022-10-01T06:21:11.541Z,23.38
2022-10-01T06:23:39.386Z,23.39
2022-10-01T06:26:07.057Z,23.41
2022-10-01T06:28:34.757Z,23.43
2022-10-01T06:31:03.116Z,23.44
2022-10-01T06:33:30.916Z,23.46
2022-10-01T06:35:58.622Z,23.47
2022-10-01T06:38:26.534Z,23.48
2022-10-01T06:40:59.558Z,23.49
2022-10-01T06:43:29.889Z,23.50
2022-10-01T06:46:00.961Z,23.51
2022-10-01T06:48:31.419Z,23.53
2022-10-01T06:50:59.457Z,23.54
2022-10-01T06:53:28.370Z,23.56
2022-10-01T06:55:56.639Z,23.53
2022-10-01T06:58:27.927Z,23.58
2022-10-01T07:01:01.538Z,23.59
2022-10-01T07:03:31.031Z,23.58
2022-10-01T07:06:04.115Z,23.59
2022-10-01T07:08:33.116Z,23.60
2022-10-01T07:11:02.741Z,23.61
2022-10-01T07:13:31.276Z,23.62
2022-10-01T07:15:58.973Z,23.64
2022-10-01T07:18:27.115Z,23.66
2022-10-01T07:20:57.224Z,23.67
2022-10-01T07:23:25.051Z,23.67
2022-10-01T07:25:52.892Z,23.68
2022-10-01T07:28:23.951Z,23.69
2022-10-01T07:31:06.732Z,23.69
2022-10-01T07:33:34.453Z,23.69
2022-10-01T07:36:05.109Z,23.70
2022-10-01T07:38:36.316Z,23.72
2022-10-01T07:41:04.692Z,23.73
2022-10-01T07:43:34.221Z,23.75
2022-10-01T07:46:03.667Z,23.77
2022-10-01T07:48:31.656Z,23.79
2022-10-01T07:50:59.252Z,23.79
2022-10-01T07:53:28.205Z,23.79
2022-10-01T07:55:56.101Z,23.80
2022-10-01T07:58:24.297Z,23.81
2022-10-01T08:00:58.529Z,23.82
2022-10-01T08:03:27.147Z,23.83
2022-10-01T08:05:55.207Z,23.86
2022-10-01T08:08:23.134Z,23.88
2022-10-01T08:10:50.949Z,23.89
2022-10-01T08:13:18.705Z,23.91
2022-10-01T08:15:50.519Z,23.92
2022-10-01T08:18:18.400Z,23.93
2022-10-01T08:20:46.284Z,23.93
2022-10-01T08:23:16.637Z,23.94
2022-10-01T08:25:45.789Z,23.94
2022-10-01T08:28:14.667Z,23.94
2022-10-01T08:30:43.878Z,23.94
2022-10-01T08:33:13.095Z,23.94
2022-10-01T08:35:41.535Z,23.94
2022-10-01T08:38:09.852Z,23.92
2022-10-01T08:40:50.004Z,23.91
2022-10-01T08:43:53.341Z,23.89
2022-10-01T08:46:31.737Z,23.84
2022-10-01T08:49:11.623Z,23.82
2022-10-01T08:51:53.078Z,23.80
2022-10-01T08:54:33.752Z,23.73
2022-10-01T08:57:03.510Z,23.74
2022-10-01T08:59:50.951Z,23.72
2022-10-01T09:02:33.701Z,23.68
2022-10-01T09:05:07.769Z,23.65
2022-10-01T09:07:45.536Z,23.63
2022-10-01T09:10:42.313Z,23.61
2022-10-01T09:13:19.009Z,23.58
2022-10-01T09:15:57.157Z,23.56
2022-10-01T09:18:49.226Z,23.54
2022-10-01T09:21:27.556Z,23.52
2022-10-01T09:24:04.177Z,23.50
2022-10-01T09:26:32.428Z,23.47
2022-10-01T09:29:01.705Z,23.46
2022-10-01T09:31:38.618Z,23.45
2022-10-01T09:34:15.969Z,23.43
2022-10-01T09:37:14.763Z,23.41
2022-10-01T09:40:10.494Z,23.37
2022-10-01T09:42:38.884Z,23.30
2022-10-01T09:45:07.156Z,23.25
2022-10-01T09:47:34.924Z,23.21
2022-10-01T09:50:05.661Z,23.18
2022-10-01T09:52:36.283Z,23.16
2022-10-01T09:55:36.237Z,23.15
2022-10-01T09:58:16.557Z,23.14
2022-10-01T10:00:45.401Z,23.13
2022-10-01T10:03:23.085Z,23.13
2022-10-01T10:05:51.262Z,23.12
2022-10-01T10:08:31.878Z,23.11
